sensor_id;sensor_type;location;lat;lon;timestamp;P1;durP1;ratioP1;P2;durP2;ratioP2
45232;SDS011;30969;51.052;17.056;2023-06-26T00:04:26;5.22;;;3.88;;
45232;SDS011;30969;51.052;17.056;2023-06-26T00:09:30;5.50;;;4.18;;
45232;SDS011;30969;51.052;17.056;2023-06-26T00:14:35;5.45;;;4.13;;
45232;SDS011;30969;51.052;17.056;2023-06-26T00:19:38;5.38;;;3.50;;
45232;SDS011;30969;51.052;17.056;2023-06-26T00:24:41;4.18;;;3.08;;
45232;SDS011;30969;51.052;17.056;2023-06-26T00:29:48;4.07;;;3.20;;
45232;SDS011;30969;51.052;17.056;2023-06-26T00:34:51;5.30;;;3.80;;
45232;SDS011;30969;51.052;17.056;2023-06-26T00:39:55;5.80;;;3.80;;
45232;SDS011;30969;51.052;17.056;2023-06-26T00:45:00;6.10;;;4.60;;
45232;SDS011;30969;51.052;17.056;2023-06-26T00:50:03;5.82;;;4.15;;
45232;SDS011;30969;51.052;17.056;2023-06-26T00:55:08;5.97;;;4.10;;
45232;SDS011;30969;51.052;17.056;2023-06-26T01:00:14;5.97;;;4.10;;
45232;SDS011;30969;51.052;17.056;2023-06-26T01:05:19;6.97;;;2.97;;
45232;SDS011;30969;51.052;17.056;2023-06-26T01:10:23;6.45;;;3.00;;
45232;SDS011;30969;51.052;17.056;2023-06-26T01:15:30;3.88;;;2.80;;
45232;SDS011;30969;51.052;17.056;2023-06-26T01:20:36;4.78;;;3.08;;
45232;SDS011;30969;51.052;17.056;2023-06-26T01:25:51;4.55;;;3.30;;
45232;SDS011;30969;51.052;17.056;2023-06-26T01:31:06;4.63;;;3.63;;
45232;SDS011;30969;51.052;17.056;2023-06-26T01:36:10;5.05;;;3.38;;
45232;SDS011;30969;51.052;17.056;2023-06-26T01:41:15;5.22;;;3.72;;
45232;SDS011;30969;51.052;17.056;2023-06-26T01:46:21;4.40;;;3.25;;
45232;SDS011;30969;51.052;17.056;2023-06-26T01:51:29;4.90;;;3.25;;
45232;SDS011;30969;51.052;17.056;2023-06-26T01:56:35;4.40;;;3.10;;
45232;SDS011;30969;51.052;17.056;2023-06-26T02:01:44;4.88;;;2.90;;
45232;SDS011;30969;51.052;17.056;2023-06-26T02:06:47;3.20;;;2.38;;
45232;SDS011;30969;51.052;17.056;2023-06-26T02:11:51;3.47;;;2.40;;
45232;SDS011;30969;51.052;17.056;2023-06-26T02:16:56;7.15;;;3.55;;
45232;SDS011;30969;51.052;17.056;2023-06-26T02:22:00;5.85;;;3.55;;
45232;SDS011;30969;51.052;17.056;2023-06-26T02:27:03;5.15;;;3.97;;
45232;SDS011;30969;51.052;17.056;2023-06-26T02:32:08;6.45;;;4.20;;
45232;SDS011;30969;51.052;17.056;2023-06-26T02:37:12;4.78;;;3.97;;
45232;SDS011;30969;51.052;17.056;2023-06-26T02:42:15;6.93;;;3.42;;
45232;SDS011;30969;51.052;17.056;2023-06-26T02:47:20;4.18;;;3.22;;
45232;SDS011;30969;51.052;17.056;2023-06-26T02:52:24;3.45;;;2.60;;
45232;SDS011;30969;51.052;17.056;2023-06-26T02:57:27;4.22;;;2.53;;
45232;SDS011;30969;51.052;17.056;2023-06-26T03:02:33;5.15;;;2.58;;
45232;SDS011;30969;51.052;17.056;2023-06-26T03:07:36;3.53;;;2.70;;
45232;SDS011;30969;51.052;17.056;2023-06-26T03:12:40;3.38;;;2.58;;
45232;SDS011;30969;51.052;17.056;2023-06-26T03:17:44;3.25;;;2.40;;
45232;SDS011;30969;51.052;17.056;2023-06-26T03:22:48;5.80;;;2.75;;
45232;SDS011;30969;51.052;17.056;2023-06-26T03:27:51;4.22;;;2.80;;
45232;SDS011;30969;51.052;17.056;2023-06-26T03:32:56;3.78;;;2.65;;
45232;SDS011;30969;51.052;17.056;2023-06-26T03:38:00;3.85;;;2.72;;
45232;SDS011;30969;51.052;17.056;2023-06-26T03:43:04;3.90;;;3.05;;
45232;SDS011;30969;51.052;17.056;2023-06-26T03:48:09;3.78;;;2.70;;
45232;SDS011;30969;51.052;17.056;2023-06-26T03:53:13;4.05;;;2.25;;
45232;SDS011;30969;51.052;17.056;2023-06-26T03:58:16;3.88;;;2.20;;
45232;SDS011;30969;51.052;17.056;2023-06-26T04:03:21;3.38;;;2.40;;
45232;SDS011;30969;51.052;17.056;2023-06-26T04:08:25;4.47;;;2.40;;
45232;SDS011;30969;51.052;17.056;2023-06-26T04:13:28;4.55;;;2.53;;
45232;SDS011;30969;51.052;17.056;2023-06-26T04:18:33;3.28;;;2.42;;
45232;SDS011;30969;51.052;17.056;2023-06-26T04:23:37;3.65;;;2.13;;
45232;SDS011;30969;51.052;17.056;2023-06-26T04:28:41;3.60;;;2.30;;
45232;SDS011;30969;51.052;17.056;2023-06-26T04:33:46;3.17;;;1.70;;
45232;SDS011;30969;51.052;17.056;2023-06-26T04:38:52;3.72;;;2.17;;
45232;SDS011;30969;51.052;17.056;2023-06-26T04:43:56;1.98;;;1.60;;
45232;SDS011;30969;51.052;17.056;2023-06-26T04:49:01;4.30;;;2.33;;
45232;SDS011;30969;51.052;17.056;2023-06-26T04:54:05;4.30;;;2.40;;
45232;SDS011;30969;51.052;17.056;2023-06-26T04:59:09;5.07;;;3.00;;
45232;SDS011;30969;51.052;17.056;2023-06-26T05:04:16;6.78;;;2.60;;
45232;SDS011;30969;51.052;17.056;2023-06-26T05:09:19;4.70;;;2.92;;
45232;SDS011;30969;51.052;17.056;2023-06-26T05:14:23;3.90;;;2.67;;
45232;SDS011;30969;51.052;17.056;2023-06-26T05:19:28;3.65;;;2.30;;
45232;SDS011;30969;51.052;17.056;2023-06-26T05:24:31;2.78;;;1.80;;
45232;SDS011;30969;51.052;17.056;2023-06-26T05:29:35;4.18;;;1.90;;
45232;SDS011;30969;51.052;17.056;2023-06-26T05:34:41;2.85;;;1.92;;
45232;SDS011;30969;51.052;17.056;2023-06-26T05:39:45;2.33;;;1.80;;
45232;SDS011;30969;51.052;17.056;2023-06-26T05:44:49;3.05;;;2.17;;
45232;SDS011;30969;51.052;17.056;2023-06-26T05:49:54;2.97;;;1.95;;
45232;SDS011;30969;51.052;17.056;2023-06-26T05:54:58;2.35;;;1.77;;
45232;SDS011;30969;51.052;17.056;2023-06-26T06:00:02;4.10;;;1.95;;
45232;SDS011;30969;51.052;17.056;2023-06-26T06:05:13;2.75;;;1.90;;
45232;SDS011;30969;51.052;17.056;2023-06-26T06:10:16;3.65;;;2.10;;
45232;SDS011;30969;51.052;17.056;2023-06-26T06:15:20;3.22;;;2.03;;
45232;SDS011;30969;51.052;17.056;2023-06-26T06:20:25;3.10;;;1.80;;
45232;SDS011;30969;51.052;17.056;2023-06-26T06:25:29;2.30;;;1.75;;
45232;SDS011;30969;51.052;17.056;2023-06-26T06:30:32;2.58;;;1.80;;
45232;SDS011;30969;51.052;17.056;2023-06-26T06:35:47;3.03;;;1.88;;
45232;SDS011;30969;51.052;17.056;2023-06-26T06:40:53;2.20;;;1.70;;
45232;SDS011;30969;51.052;17.056;2023-06-26T06:45:56;3.80;;;1.75;;
45232;SDS011;30969;51.052;17.056;2023-06-26T06:51:01;2.50;;;1.60;;
45232;SDS011;30969;51.052;17.056;2023-06-26T06:56:05;2.78;;;2.05;;
45232;SDS011;30969;51.052;17.056;2023-06-26T07:01:08;3.05;;;2.00;;
45232;SDS011;30969;51.052;17.056;2023-06-26T07:06:13;2.45;;;1.90;;
45232;SDS011;30969;51.052;17.056;2023-06-26T07:11:17;2.30;;;1.95;;
45232;SDS011;30969;51.052;17.056;2023-06-26T07:16:20;2.42;;;2.00;;
45232;SDS011;30969;51.052;17.056;2023-06-26T07:21:25;3.78;;;2.15;;
45232;SDS011;30969;51.052;17.056;2023-06-26T07:26:29;3.10;;;2.40;;
45232;SDS011;30969;51.052;17.056;2023-06-26T07:31:46;3.00;;;2.15;;
45232;SDS011;30969;51.052;17.056;2023-06-26T07:36:51;3.42;;;2.60;;
45232;SDS011;30969;51.052;17.056;2023-06-26T07:41:54;3.60;;;2.20;;
45232;SDS011;30969;51.052;17.056;2023-06-26T07:47:00;3.05;;;2.20;;
45232;SDS011;30969;51.052;17.056;2023-06-26T07:52:06;3.85;;;2.45;;
45232;SDS011;30969;51.052;17.056;2023-06-26T07:57:12;3.92;;;2.17;;
45232;SDS011;30969;51.052;17.056;2023-06-26T08:02:15;3.10;;;2.33;;
45232;SDS011;30969;51.052;17.056;2023-06-26T08:07:21;4.40;;;2.40;;
45232;SDS011;30969;51.052;17.056;2023-06-26T08:12:24;3.65;;;2.15;;
45232;SDS011;30969;51.052;17.056;2023-06-26T08:17:28;3.47;;;2.47;;
45232;SDS011;30969;51.052;17.056;2023-06-26T08:22:33;3.28;;;2.25;;
45232;SDS011;30969;51.052;17.056;2023-06-26T08:27:36;3.65;;;2.55;;
45232;SDS011;30969;51.052;17.056;2023-06-26T08:32:40;4.28;;;2.47;;
45232;SDS011;30969;51.052;17.056;2023-06-26T08:37:46;2.88;;;2.30;;
45232;SDS011;30969;51.052;17.056;2023-06-26T08:42:50;3.50;;;2.40;;
45232;SDS011;30969;51.052;17.056;2023-06-26T08:47:55;2.67;;;2.17;;
45232;SDS011;30969;51.052;17.056;2023-06-26T08:53:07;2.55;;;2.08;;
45232;SDS011;30969;51.052;17.056;2023-06-26T08:58:16;3.05;;;2.35;;
45232;SDS011;30969;51.052;17.056;2023-06-26T09:03:20;3.28;;;2.50;;
45232;SDS011;30969;51.052;17.056;2023-06-26T09:08:25;2.25;;;1.80;;
45232;SDS011;30969;51.052;17.056;2023-06-26T09:13:30;2.97;;;2.05;;
45232;SDS011;30969;51.052;17.056;2023-06-26T09:18:34;3.80;;;2.47;;
45232;SDS011;30969;51.052;17.056;2023-06-26T09:23:40;2.45;;;2.08;;
45232;SDS011;30969;51.052;17.056;2023-06-26T09:28:44;3.83;;;2.53;;
45232;SDS011;30969;51.052;17.056;2023-06-26T09:33:47;4.53;;;2.20;;
45232;SDS011;30969;51.052;17.056;2023-06-26T09:38:53;3.83;;;2.50;;
45232;SDS011;30969;51.052;17.056;2023-06-26T09:43:58;2.67;;;2.33;;
45232;SDS011;30969;51.052;17.056;2023-06-26T09:49:05;2.75;;;2.17;;
45232;SDS011;30969;51.052;17.056;2023-06-26T09:54:11;2.95;;;2.13;;
45232;SDS011;30969;51.052;17.056;2023-06-26T09:59:19;3.75;;;2.22;;
45232;SDS011;30969;51.052;17.056;2023-06-26T10:04:23;4.70;;;2.70;;
45232;SDS011;30969;51.052;17.056;2023-06-26T10:09:28;3.35;;;2.63;;
45232;SDS011;30969;51.052;17.056;2023-06-26T10:14:34;3.33;;;2.10;;
45232;SDS011;30969;51.052;17.056;2023-06-26T10:19:39;2.55;;;2.10;;
45232;SDS011;30969;51.052;17.056;2023-06-26T10:24:48;3.65;;;2.15;;
45232;SDS011;30969;51.052;17.056;2023-06-26T10:29:54;4.13;;;2.85;;
45232;SDS011;30969;51.052;17.056;2023-06-26T10:35:01;2.80;;;2.08;;
45232;SDS011;30969;51.052;17.056;2023-06-26T10:40:07;3.00;;;1.95;;
45232;SDS011;30969;51.052;17.056;2023-06-26T10:45:13;2.97;;;2.20;;
45232;SDS011;30969;51.052;17.056;2023-06-26T10:50:18;2.78;;;2.30;;
45232;SDS011;30969;51.052;17.056;2023-06-26T10:55:40;3.15;;;2.47;;
45232;SDS011;30969;51.052;17.056;2023-06-26T11:00:49;2.88;;;1.92;;
45232;SDS011;30969;51.052;17.056;2023-06-26T11:06:08;3.95;;;2.13;;
45232;SDS011;30969;51.052;17.056;2023-06-26T11:11:14;3.80;;;2.58;;
45232;SDS011;30969;51.052;17.056;2023-06-26T11:16:19;2.80;;;2.20;;
45232;SDS011;30969;51.052;17.056;2023-06-26T11:21:22;2.75;;;2.20;;
45232;SDS011;30969;51.052;17.056;2023-06-26T11:26:28;3.30;;;2.17;;
45232;SDS011;30969;51.052;17.056;2023-06-26T11:31:32;2.35;;;2.00;;
45232;SDS011;30969;51.052;17.056;2023-06-26T11:36:36;3.30;;;2.53;;
45232;SDS011;30969;51.052;17.056;2023-06-26T11:41:41;3.15;;;1.90;;
45232;SDS011;30969;51.052;17.056;2023-06-26T11:46:47;3.25;;;2.28;;
45232;SDS011;30969;51.052;17.056;2023-06-26T11:51:56;3.10;;;2.33;;
45232;SDS011;30969;51.052;17.056;2023-06-26T11:57:01;2.22;;;1.88;;
45232;SDS011;30969;51.052;17.056;2023-06-26T12:02:05;2.90;;;2.20;;
45232;SDS011;30969;51.052;17.056;2023-06-26T12:07:10;3.92;;;2.60;;
45232;SDS011;30969;51.052;17.056;2023-06-26T12:12:16;3.63;;;2.47;;
45232;SDS011;30969;51.052;17.056;2023-06-26T12:17:22;3.15;;;2.22;;
45232;SDS011;30969;51.052;17.056;2023-06-26T12:22:33;2.67;;;1.90;;
45232;SDS011;30969;51.052;17.056;2023-06-26T12:27:38;4.43;;;2.08;;
45232;SDS011;30969;51.052;17.056;2023-06-26T12:32:43;3.90;;;2.42;;
45232;SDS011;30969;51.052;17.056;2023-06-26T12:37:49;2.85;;;2.40;;
45232;SDS011;30969;51.052;17.056;2023-06-26T12:42:54;2.78;;;2.15;;
45232;SDS011;30969;51.052;17.056;2023-06-26T12:48:06;2.38;;;2.00;;
45232;SDS011;30969;51.052;17.056;2023-06-26T12:53:11;2.90;;;2.20;;
45232;SDS011;30969;51.052;17.056;2023-06-26T12:58:17;3.72;;;2.70;;
45232;SDS011;30969;51.052;17.056;2023-06-26T13:03:20;3.75;;;2.38;;
45232;SDS011;30969;51.052;17.056;2023-06-26T13:08:24;2.63;;;2.03;;
45232;SDS011;30969;51.052;17.056;2023-06-26T13:13:29;2.20;;;1.92;;
45232;SDS011;30969;51.052;17.056;2023-06-26T13:18:33;2.60;;;2.20;;
45232;SDS011;30969;51.052;17.056;2023-06-26T13:23:36;2.97;;;2.05;;
45232;SDS011;30969;51.052;17.056;2023-06-26T13:28:41;2.80;;;2.17;;
45232;SDS011;30969;51.052;17.056;2023-06-26T13:33:45;2.92;;;2.33;;
45232;SDS011;30969;51.052;17.056;2023-06-26T13:38:50;4.47;;;2.20;;
45232;SDS011;30969;51.052;17.056;2023-06-26T13:43:59;3.03;;;2.30;;
45232;SDS011;30969;51.052;17.056;2023-06-26T13:49:23;3.75;;;2.30;;
45232;SDS011;30969;51.052;17.056;2023-06-26T13:54:26;3.55;;;2.63;;
45232;SDS011;30969;51.052;17.056;2023-06-26T13:59:31;4.10;;;2.70;;
45232;SDS011;30969;51.052;17.056;2023-06-26T14:04:36;2.72;;;2.20;;
45232;SDS011;30969;51.052;17.056;2023-06-26T14:09:40;3.75;;;2.15;;
45232;SDS011;30969;51.052;17.056;2023-06-26T14:14:45;2.58;;;1.92;;
45232;SDS011;30969;51.052;17.056;2023-06-26T14:19:48;3.55;;;2.05;;
45232;SDS011;30969;51.052;17.056;2023-06-26T14:24:52;2.95;;;1.95;;
45232;SDS011;30969;51.052;17.056;2023-06-26T14:29:57;2.17;;;1.98;;
45232;SDS011;30969;51.052;17.056;2023-06-26T14:35:02;3.20;;;2.03;;
45232;SDS011;30969;51.052;17.056;2023-06-26T14:40:06;3.13;;;2.30;;
45232;SDS011;30969;51.052;17.056;2023-06-26T14:45:12;2.13;;;1.92;;
45232;SDS011;30969;51.052;17.056;2023-06-26T14:50:16;3.22;;;2.28;;
45232;SDS011;30969;51.052;17.056;2023-06-26T14:55:20;2.53;;;2.00;;
45232;SDS011;30969;51.052;17.056;2023-06-26T15:00:25;2.42;;;2.22;;
45232;SDS011;30969;51.052;17.056;2023-06-26T15:05:29;2.22;;;1.95;;
45232;SDS011;30969;51.052;17.056;2023-06-26T15:10:33;2.50;;;1.85;;
45232;SDS011;30969;51.052;17.056;2023-06-26T15:15:39;3.38;;;2.53;;
45232;SDS011;30969;51.052;17.056;2023-06-26T15:20:42;3.20;;;2.20;;
45232;SDS011;30969;51.052;17.056;2023-06-26T15:25:46;4.28;;;2.33;;
45232;SDS011;30969;51.052;17.056;2023-06-26T15:30:51;2.72;;;2.00;;
45232;SDS011;30969;51.052;17.056;2023-06-26T15:35:55;2.45;;;2.03;;
45232;SDS011;30969;51.052;17.056;2023-06-26T15:40:58;3.17;;;2.45;;
45232;SDS011;30969;51.052;17.056;2023-06-26T15:46:03;2.67;;;2.33;;
45232;SDS011;30969;51.052;17.056;2023-06-26T15:51:08;2.13;;;1.80;;
45232;SDS011;30969;51.052;17.056;2023-06-26T15:56:15;2.83;;;2.10;;
45232;SDS011;30969;51.052;17.056;2023-06-26T16:01:20;3.50;;;2.50;;
45232;SDS011;30969;51.052;17.056;2023-06-26T16:06:25;2.50;;;2.00;;
45232;SDS011;30969;51.052;17.056;2023-06-26T16:11:28;2.40;;;1.92;;
45232;SDS011;30969;51.052;17.056;2023-06-26T16:16:33;2.20;;;2.00;;
45232;SDS011;30969;51.052;17.056;2023-06-26T16:21:37;2.90;;;2.28;;
45232;SDS011;30969;51.052;17.056;2023-06-26T16:26:40;2.30;;;2.00;;
45232;SDS011;30969;51.052;17.056;2023-06-26T16:31:45;2.63;;;2.17;;
45232;SDS011;30969;51.052;17.056;2023-06-26T16:36:51;2.40;;;1.90;;
45232;SDS011;30969;51.052;17.056;2023-06-26T16:41:54;3.15;;;2.30;;
45232;SDS011;30969;51.052;17.056;2023-06-26T16:46:59;2.55;;;2.30;;
45232;SDS011;30969;51.052;17.056;2023-06-26T16:52:04;2.53;;;2.15;;
45232;SDS011;30969;51.052;17.056;2023-06-26T16:57:08;3.17;;;1.98;;
45232;SDS011;30969;51.052;17.056;2023-06-26T17:02:13;2.67;;;1.88;;
45232;SDS011;30969;51.052;17.056;2023-06-26T17:07:17;2.60;;;2.10;;
45232;SDS011;30969;51.052;17.056;2023-06-26T17:12:21;4.60;;;2.38;;
45232;SDS011;30969;51.052;17.056;2023-06-26T17:17:28;2.90;;;2.40;;
45232;SDS011;30969;51.052;17.056;2023-06-26T17:22:32;2.40;;;2.10;;
45232;SDS011;30969;51.052;17.056;2023-06-26T17:27:36;3.78;;;2.22;;
45232;SDS011;30969;51.052;17.056;2023-06-26T17:32:41;3.25;;;2.20;;
45232;SDS011;30969;51.052;17.056;2023-06-26T17:37:44;3.67;;;2.08;;
45232;SDS011;30969;51.052;17.056;2023-06-26T17:42:48;2.78;;;1.90;;
45232;SDS011;30969;51.052;17.056;2023-06-26T17:47:53;2.75;;;2.17;;
45232;SDS011;30969;51.052;17.056;2023-06-26T17:52:56;3.03;;;2.33;;
45232;SDS011;30969;51.052;17.056;2023-06-26T17:58:01;3.42;;;2.38;;
45232;SDS011;30969;51.052;17.056;2023-06-26T18:03:06;2.55;;;2.22;;
45232;SDS011;30969;51.052;17.056;2023-06-26T18:08:10;2.75;;;2.20;;
45232;SDS011;30969;51.052;17.056;2023-06-26T18:13:14;3.50;;;2.17;;
45232;SDS011;30969;51.052;17.056;2023-06-26T18:18:19;3.35;;;2.42;;
45232;SDS011;30969;51.052;17.056;2023-06-26T18:23:22;2.78;;;2.05;;
45232;SDS011;30969;51.052;17.056;2023-06-26T18:28:27;3.08;;;2.15;;
45232;SDS011;30969;51.052;17.056;2023-06-26T18:33:32;3.00;;;2.38;;
45232;SDS011;30969;51.052;17.056;2023-06-26T18:38:36;2.80;;;2.10;;
45232;SDS011;30969;51.052;17.056;2023-06-26T18:43:40;2.35;;;1.90;;
45232;SDS011;30969;51.052;17.056;2023-06-26T18:48:46;2.63;;;2.00;;
45232;SDS011;30969;51.052;17.056;2023-06-26T18:53:50;2.38;;;1.90;;
45232;SDS011;30969;51.052;17.056;2023-06-26T18:58:53;3.75;;;2.20;;
45232;SDS011;30969;51.052;17.056;2023-06-26T19:03:59;3.10;;;1.92;;
45232;SDS011;30969;51.052;17.056;2023-06-26T19:09:02;4.85;;;2.22;;
45232;SDS011;30969;51.052;17.056;2023-06-26T19:14:06;4.40;;;2.70;;
45232;SDS011;30969;51.052;17.056;2023-06-26T19:19:13;3.40;;;2.40;;
45232;SDS011;30969;51.052;17.056;2023-06-26T19:24:17;4.75;;;2.90;;
45232;SDS011;30969;51.052;17.056;2023-06-26T19:29:20;3.55;;;2.80;;
45232;SDS011;30969;51.052;17.056;2023-06-26T19:34:25;3.65;;;2.80;;
45232;SDS011;30969;51.052;17.056;2023-06-26T19:39:29;3.15;;;2.40;;
45232;SDS011;30969;51.052;17.056;2023-06-26T19:44:33;3.22;;;2.70;;
45232;SDS011;30969;51.052;17.056;2023-06-26T19:49:38;3.72;;;2.70;;
45232;SDS011;30969;51.052;17.056;2023-06-26T19:54:41;4.15;;;2.97;;
45232;SDS011;30969;51.052;17.056;2023-06-26T19:59:45;6.80;;;2.83;;
45232;SDS011;30969;51.052;17.056;2023-06-26T20:04:50;8.68;;;2.05;;
45232;SDS011;30969;51.052;17.056;2023-06-26T20:09:54;4.28;;;1.70;;
45232;SDS011;30969;51.052;17.056;2023-06-26T20:14:58;2.97;;;1.63;;
45232;SDS011;30969;51.052;17.056;2023-06-26T20:20:04;10.48;;;2.97;;
45232;SDS011;30969;51.052;17.056;2023-06-26T20:25:08;7.57;;;2.92;;
45232;SDS011;30969;51.052;17.056;2023-06-26T20:30:12;4.40;;;1.42;;
45232;SDS011;30969;51.052;17.056;2023-06-26T20:35:17;2.22;;;1.15;;
45232;SDS011;30969;51.052;17.056;2023-06-26T20:40:21;1.27;;;0.70;;
45232;SDS011;30969;51.052;17.056;2023-06-26T20:45:25;1.15;;;0.95;;
45232;SDS011;30969;51.052;17.056;2023-06-26T20:50:31;2.13;;;0.90;;
45232;SDS011;30969;51.052;17.056;2023-06-26T20:55:35;1.92;;;0.98;;
45232;SDS011;30969;51.052;17.056;2023-06-26T21:00:40;1.80;;;0.82;;
45232;SDS011;30969;51.052;17.056;2023-06-26T21:05:45;2.33;;;1.40;;
45232;SDS011;30969;51.052;17.056;2023-06-26T21:10:49;3.13;;;1.48;;
45232;SDS011;30969;51.052;17.056;2023-06-26T21:15:52;1.88;;;1.27;;
45232;SDS011;30969;51.052;17.056;2023-06-26T21:20:59;2.35;;;1.48;;
45232;SDS011;30969;51.052;17.056;2023-06-26T21:26:02;3.28;;;1.90;;
45232;SDS011;30969;51.052;17.056;2023-06-26T21:31:06;7.15;;;3.00;;
45232;SDS011;30969;51.052;17.056;2023-06-26T21:36:11;4.32;;;2.75;;
45232;SDS011;30969;51.052;17.056;2023-06-26T21:41:15;3.03;;;1.90;;
45232;SDS011;30969;51.052;17.056;2023-06-26T21:46:18;3.55;;;2.70;;
45232;SDS011;30969;51.052;17.056;2023-06-26T21:51:23;4.35;;;3.20;;
45232;SDS011;30969;51.052;17.056;2023-06-26T21:56:27;4.72;;;3.92;;
45232;SDS011;30969;51.052;17.056;2023-06-26T22:01:31;7.30;;;4.80;;
45232;SDS011;30969;51.052;17.056;2023-06-26T22:06:36;5.35;;;4.10;;
45232;SDS011;30969;51.052;17.056;2023-06-26T22:11:40;5.43;;;3.78;;
45232;SDS011;30969;51.052;17.056;2023-06-26T22:16:43;9.18;;;4.78;;
45232;SDS011;30969;51.052;17.056;2023-06-26T22:21:48;6.72;;;4.68;;
45232;SDS011;30969;51.052;17.056;2023-06-26T22:26:52;6.93;;;3.95;;
45232;SDS011;30969;51.052;17.056;2023-06-26T22:31:55;6.22;;;5.10;;
45232;SDS011;30969;51.052;17.056;2023-06-26T22:37:01;7.07;;;4.50;;
45232;SDS011;30969;51.052;17.056;2023-06-26T22:42:06;6.35;;;4.53;;
45232;SDS011;30969;51.052;17.056;2023-06-26T22:47:11;5.80;;;4.15;;
45232;SDS011;30969;51.052;17.056;2023-06-26T22:52:16;5.10;;;4.05;;
45232;SDS011;30969;51.052;17.056;2023-06-26T22:57:20;5.75;;;4.65;;
45232;SDS011;30969;51.052;17.056;2023-06-26T23:02:23;6.28;;;3.92;;
45232;SDS011;30969;51.052;17.056;2023-06-26T23:07:30;7.00;;;4.55;;
45232;SDS011;30969;51.052;17.056;2023-06-26T23:12:36;6.32;;;4.75;;
45232;SDS011;30969;51.052;17.056;2023-06-26T23:17:42;6.03;;;5.28;;
45232;SDS011;30969;51.052;17.056;2023-06-26T23:22:48;7.47;;;6.22;;
45232;SDS011;30969;51.052;17.056;2023-06-26T23:27:51;5.70;;;4.57;;
45232;SDS011;30969;51.052;17.056;2023-06-26T23:33:02;5.85;;;4.65;;
45232;SDS011;30969;51.052;17.056;2023-06-26T23:38:09;6.07;;;4.80;;
45232;SDS011;30969;51.052;17.056;2023-06-26T23:43:13;6.45;;;4.63;;
45232;SDS011;30969;51.052;17.056;2023-06-26T23:48:17;5.60;;;4.22;;
45232;SDS011;30969;51.052;17.056;2023-06-26T23:53:22;4.95;;;4.22;;
45232;SDS011;30969;51.052;17.056;2023-06-26T23:58:26;7.20;;;4.82;;
